createdAt,value
2018-07-01T00:01:24.774Z,10.50
2018-07-01T00:03:52.971Z,10.50
2018-07-01T00:06:21.184Z,10.50
2018-07-01T00:08:49.424Z,10.40
2018-07-01T00:11:17.818Z,10.50
2018-07-01T00:13:46.057Z,10.40
2018-07-01T00:16:14.675Z,10.40
2018-07-01T00:18:42.902Z,10.30
2018-07-01T00:21:11.198Z,10.30
2018-07-01T00:23:39.460Z,10.30
2018-07-01T00:26:07.737Z,10.30
2018-07-01T00:28:35.936Z,10.20
2018-07-01T00:31:04.180Z,10.20
2018-07-01T00:33:32.384Z,10.10
2018-07-01T00:36:00.652Z,10.10
2018-07-01T00:38:28.888Z,10.10
2018-07-01T00:40:57.173Z,10.10
2018-07-01T00:43:25.377Z,10.10
2018-07-01T00:45:53.615Z,10.10
2018-07-01T00:48:21.820Z,10.00
2018-07-01T00:50:50.325Z,9.90
2018-07-01T00:53:18.569Z,9.90
2018-07-01T00:55:46.821Z,9.80
2018-07-01T00:58:15.609Z,9.80
2018-07-01T01:00:43.841Z,9.80
2018-07-01T01:03:12.422Z,9.80
2018-07-01T01:05:40.696Z,9.70
2018-07-01T01:08:08.911Z,9.70
2018-07-01T01:10:37.150Z,9.60
2018-07-01T01:13:05.800Z,9.60
2018-07-01T01:15:34.069Z,9.50
2018-07-01T01:18:02.271Z,9.50
2018-07-01T01:20:30.501Z,9.50
2018-07-01T01:22:58.715Z,9.50
2018-07-01T01:25:26.956Z,9.50
2018-07-01T01:27:55.175Z,9.40
2018-07-01T01:30:23.416Z,9.30
2018-07-01T01:32:51.987Z,9.30
2018-07-01T01:35:20.187Z,9.30
2018-07-01T01:37:49.060Z,9.30
2018-07-01T01:40:19.888Z,9.20
2018-07-01T01:42:56.100Z,9.20
2018-07-01T01:45:27.875Z,9.20
2018-07-01T01:48:01.018Z,9.10
2018-07-01T01:50:41.512Z,9.10
2018-07-01T01:53:19.559Z,9.10
2018-07-01T01:55:52.683Z,9.00
2018-07-01T01:58:34.748Z,9.00
2018-07-01T02:01:07.660Z,9.00
2018-07-01T02:03:42.258Z,8.90
2018-07-01T02:06:19.971Z,8.90
2018-07-01T02:08:54.770Z,8.90
2018-07-01T02:11:23.918Z,8.80
2018-07-01T02:13:55.327Z,8.70
2018-07-01T02:16:31.257Z,8.70
2018-07-01T02:18:59.483Z,8.70
2018-07-01T02:21:27.754Z,8.60
2018-07-01T02:23:59.196Z,8.60
2018-07-01T02:26:29.108Z,8.70
2018-07-01T02:28:57.314Z,8.70
2018-07-01T02:31:25.550Z,8.80
2018-07-01T02:33:53.964Z,8.80
2018-07-01T02:36:22.474Z,8.70
2018-07-01T02:38:50.944Z,8.60
2018-07-01T02:41:19.212Z,8.60
2018-07-01T02:43:47.415Z,8.50
2018-07-01T02:46:15.643Z,8.40
2018-07-01T02:48:43.847Z,8.40
2018-07-01T02:51:12.067Z,8.30
2018-07-01T02:53:40.340Z,8.40
2018-07-01T02:56:08.535Z,8.30
2018-07-01T02:58:36.763Z,8.30
2018-07-01T03:01:04.988Z,8.30
2018-07-01T03:03:33.211Z,8.20
2018-07-01T03:06:01.431Z,8.20
2018-07-01T03:08:29.703Z,8.20
2018-07-01T03:10:57.912Z,8.20
2018-07-01T03:13:26.135Z,8.20
2018-07-01T03:15:54.362Z,8.20
2018-07-01T03:18:22.779Z,8.20
2018-07-01T03:20:50.983Z,8.20
2018-07-01T03:23:19.224Z,8.30
2018-07-01T03:28:15.447Z,8.30
2018-07-01T03:30:43.687Z,8.30
2018-07-01T03:33:11.922Z,8.20
2018-07-01T03:35:40.133Z,8.20
2018-07-01T03:38:08.358Z,8.20
2018-07-01T03:40:36.559Z,8.20
2018-07-01T03:43:04.947Z,8.20
2018-07-01T03:45:33.748Z,8.20
2018-07-01T03:48:02.428Z,8.10
2018-07-01T03:50:30.636Z,8.10
2018-07-01T03:52:58.870Z,8.10
2018-07-01T03:55:27.145Z,8.10
2018-07-01T03:57:55.363Z,8.10
2018-07-01T04:00:23.655Z,8.10
2018-07-01T04:02:51.825Z,8.10
2018-07-01T04:05:20.024Z,8.20
2018-07-01T04:07:48.247Z,8.20
2018-07-01T04:10:16.439Z,8.40
2018-07-01T04:12:44.663Z,8.50
2018-07-01T04:15:12.874Z,8.50
2018-07-01T04:17:41.096Z,8.60
2018-07-01T04:20:09.318Z,8.60
2018-07-01T04:22:37.526Z,8.70
2018-07-01T04:25:05.855Z,8.80
2018-07-01T04:27:34.074Z,8.90
2018-07-01T04:30:02.303Z,9.00
2018-07-01T04:34:58.489Z,9.30
2018-07-01T04:37:26.703Z,9.80
2018-07-01T04:39:54.910Z,10.30
2018-07-01T04:42:23.180Z,11.40
2018-07-01T04:44:51.433Z,12.50
2018-07-01T04:47:19.667Z,12.60
2018-07-01T04:49:48.127Z,12.50
2018-07-01T04:52:16.342Z,12.20
2018-07-01T04:54:44.556Z,11.80
2018-07-01T04:57:12.799Z,11.60
2018-07-01T04:59:41.152Z,11.50
2018-07-01T05:02:09.506Z,11.40
2018-07-01T05:04:37.691Z,11.30
2018-07-01T05:07:05.985Z,11.30
2018-07-01T05:09:34.217Z,11.30
2018-07-01T05:12:02.450Z,11.20
2018-07-01T05:14:30.697Z,11.30
2018-07-01T05:19:27.123Z,11.50
2018-07-01T05:21:55.423Z,11.50
2018-07-01T05:24:23.637Z,11.60
2018-07-01T05:26:51.835Z,11.70
2018-07-01T05:29:20.091Z,11.70
2018-07-01T05:31:48.339Z,11.90
2018-07-01T05:34:16.946Z,12.10
2018-07-01T05:36:45.210Z,12.20
2018-07-01T05:39:13.635Z,12.20
2018-07-01T05:41:41.903Z,12.30
2018-07-01T05:44:10.135Z,12.40
2018-07-01T05:46:38.339Z,12.50
2018-07-01T05:49:07.110Z,12.60
2018-07-01T05:51:35.561Z,12.80
2018-07-01T05:54:03.837Z,12.90
2018-07-01T05:56:32.047Z,13.00
2018-07-01T05:59:00.289Z,13.20
2018-07-01T06:01:28.494Z,13.40
2018-07-01T06:03:56.731Z,13.50
2018-07-01T06:06:25.138Z,13.50
2018-07-01T06:08:53.387Z,13.60
2018-07-01T06:11:21.608Z,13.90
2018-07-01T06:13:49.851Z,14.00
2018-07-01T06:16:18.508Z,14.10
2018-07-01T06:18:47.266Z,14.20
2018-07-01T06:21:15.487Z,14.40
2018-07-01T06:23:43.703Z,14.60
2018-07-01T06:28:39.935Z,14.80
2018-07-01T06:31:08.197Z,14.90
2018-07-01T06:33:36.444Z,15.10
2018-07-01T06:36:04.738Z,15.20
2018-07-01T06:38:32.962Z,15.20
2018-07-01T06:41:01.201Z,15.30
2018-07-01T06:43:29.507Z,15.50
2018-07-01T06:45:57.710Z,15.60
2018-07-01T06:48:25.948Z,15.70
2018-07-01T06:50:54.177Z,15.80
2018-07-01T06:53:22.454Z,15.90
2018-07-01T06:55:50.648Z,16.10
2018-07-01T06:58:18.883Z,16.40
2018-07-01T07:00:47.139Z,17.10
2018-07-01T07:03:15.440Z,17.40
2018-07-01T07:05:43.684Z,17.90
2018-07-01T07:10:39.886Z,18.10
2018-07-01T07:13:08.151Z,18.10
2018-07-01T07:15:36.447Z,18.20
2018-07-01T07:18:05.596Z,18.30
2018-07-01T07:20:34.135Z,18.60
2018-07-01T07:23:02.341Z,19.00
2018-07-01T07:25:30.588Z,19.70
2018-07-01T07:27:58.818Z,20.40
2018-07-01T07:30:27.037Z,21.10
2018-07-01T07:32:55.273Z,21.60
2018-07-01T07:35:23.552Z,23.60
2018-07-01T07:37:51.852Z,24.40
2018-07-01T07:40:20.077Z,24.80
2018-07-01T07:42:48.312Z,24.30
2018-07-01T07:45:16.572Z,23.60
2018-07-01T07:47:44.774Z,22.40
2018-07-01T07:50:13.025Z,21.90
2018-07-01T07:52:41.456Z,22.30
2018-07-01T07:55:09.684Z,21.70
2018-07-01T08:00:05.929Z,22.10
2018-07-01T08:02:34.159Z,26.10
2018-07-01T08:05:02.396Z,30.50
2018-07-01T08:07:30.690Z,32.20
2018-07-01T08:09:59.035Z,33.50
2018-07-01T08:14:55.304Z,34.10
2018-07-01T08:17:23.542Z,34.60
2018-07-01T08:19:51.784Z,32.50
2018-07-01T08:22:20.031Z,28.40
2018-07-01T08:24:49.376Z,25.20
2018-07-01T08:27:17.576Z,23.20
2018-07-01T08:29:45.841Z,21.80
2018-07-01T08:32:14.367Z,23.00
2018-07-01T08:34:42.684Z,27.30
2018-07-01T08:37:10.886Z,29.20
2018-07-01T08:39:42.773Z,28.20
2018-07-01T08:42:34.695Z,25.70
2018-07-01T08:45:04.196Z,23.70
2018-07-01T08:47:32.947Z,22.30
2018-07-01T08:50:01.491Z,22.30
2018-07-01T08:52:29.778Z,26.10
2018-07-01T08:54:58.048Z,29.80
2018-07-01T08:57:26.600Z,32.30
2018-07-01T08:59:54.836Z,34.00
2018-07-01T09:02:23.219Z,33.60
2018-07-01T09:07:19.991Z,34.10
2018-07-01T09:12:16.853Z,35.30
2018-07-01T09:14:45.267Z,34.20
2018-07-01T09:17:13.814Z,30.80
2018-07-01T09:22:10.250Z,24.80
2018-07-01T09:24:39.087Z,23.50
2018-07-01T09:27:07.393Z,23.60
2018-07-01T09:29:40.408Z,26.70
2018-07-01T09:32:08.689Z,30.20
2018-07-01T09:34:36.978Z,32.70
2018-07-01T09:37:05.201Z,34.00
2018-07-01T09:39:33.505Z,31.10
2018-07-01T09:42:01.940Z,29.80
2018-07-01T09:44:30.191Z,31.80
2018-07-01T09:46:58.499Z,32.50
2018-07-01T09:49:26.756Z,30.30
2018-07-01T09:51:54.984Z,28.70
2018-07-01T09:54:23.196Z,27.80
2018-07-01T09:56:51.567Z,28.40
2018-07-01T09:59:19.845Z,29.60
2018-07-01T10:01:48.387Z,29.70
2018-07-01T10:04:16.821Z,29.80
2018-07-01T10:06:45.079Z,31.00
2018-07-01T10:09:13.606Z,31.00
2018-07-01T10:11:41.865Z,30.20
2018-07-01T10:14:10.362Z,28.60
2018-07-01T10:16:39.876Z,28.70
2018-07-01T10:19:08.109Z,29.50
2018-07-01T10:21:36.607Z,30.20
2018-07-01T10:24:04.860Z,30.40
2018-07-01T10:26:33.225Z,28.40
2018-07-01T10:29:06.185Z,25.90
2018-07-01T10:31:34.958Z,24.50
2018-07-01T10:36:31.319Z,23.10
2018-07-01T10:38:59.601Z,22.60
2018-07-01T10:41:27.920Z,22.20
2018-07-01T10:43:57.709Z,22.10
2018-07-01T10:46:26.223Z,22.00
2018-07-01T10:48:54.983Z,21.90
2018-07-01T10:51:23.239Z,21.70
2018-07-01T10:53:51.451Z,21.80
2018-07-01T10:56:19.733Z,22.50
2018-07-01T10:58:48.008Z,23.20
2018-07-01T11:03:44.489Z,24.60
2018-07-01T11:06:12.753Z,25.40
2018-07-01T11:08:40.979Z,25.60
2018-07-01T11:11:09.227Z,25.30
2018-07-01T11:13:37.464Z,24.70
2018-07-01T11:16:05.722Z,24.20
2018-07-01T11:18:34.648Z,24.10
2018-07-01T11:21:02.918Z,24.00
2018-07-01T11:23:31.177Z,23.70
2018-07-01T11:28:28.343Z,23.10
2018-07-01T11:30:56.592Z,22.90
2018-07-01T11:33:25.219Z,22.80
2018-07-01T11:35:53.471Z,23.10
2018-07-01T11:38:21.699Z,23.80
2018-07-01T11:40:50.083Z,24.30
2018-07-01T11:43:18.678Z,25.00
2018-07-01T11:45:47.861Z,25.60
2018-07-01T11:48:16.137Z,25.90
2018-07-01T11:50:44.400Z,26.00
2018-07-01T11:53:12.645Z,25.50
2018-07-01T11:55:42.938Z,25.40
2018-07-01T11:58:11.177Z,25.20
2018-07-01T12:00:39.414Z,24.90
2018-07-01T12:03:07.623Z,24.70
2018-07-01T12:05:36.070Z,24.60
2018-07-01T12:08:04.578Z,24.60
2018-07-01T12:10:32.999Z,24.70
2018-07-01T12:13:01.211Z,24.80
2018-07-01T12:15:29.439Z,24.60
2018-07-01T12:17:58.032Z,24.60
2018-07-01T12:20:26.382Z,24.90
2018-07-01T12:22:54.822Z,25.30
2018-07-01T12:25:23.081Z,25.90
2018-07-01T12:30:19.343Z,26.40
2018-07-01T12:32:47.576Z,26.80
2018-07-01T12:35:15.859Z,26.80
2018-07-01T12:37:44.133Z,27.00
2018-07-01T12:40:12.560Z,26.90
2018-07-01T12:42:40.907Z,26.00
2018-07-01T12:45:09.212Z,25.30
2018-07-01T12:47:37.740Z,25.00
2018-07-01T12:50:06.197Z,24.90
2018-07-01T12:52:34.470Z,24.90
2018-07-01T12:55:02.753Z,25.00
2018-07-01T12:57:31.140Z,24.90
2018-07-01T12:59:59.570Z,24.80
2018-07-01T13:02:27.822Z,24.60
2018-07-01T13:07:24.374Z,24.90
2018-07-01T13:09:52.619Z,25.20
2018-07-01T13:12:20.856Z,25.20
2018-07-01T13:14:49.341Z,25.30
2018-07-01T13:17:17.559Z,25.40
2018-07-01T13:19:46.940Z,25.40
2018-07-01T13:22:15.275Z,25.30
2018-07-01T13:24:43.531Z,25.30
2018-07-01T13:27:12.811Z,25.10
2018-07-01T13:32:13.383Z,25.60
2018-07-01T13:34:41.616Z,25.90
2018-07-01T13:37:09.855Z,26.10
2018-07-01T13:39:38.071Z,26.00
2018-07-01T13:42:06.406Z,25.70
2018-07-01T13:44:34.807Z,25.30
2018-07-01T13:47:03.111Z,24.70
2018-07-01T13:49:31.375Z,24.40
2018-07-01T13:51:59.620Z,24.40
2018-07-01T13:54:27.877Z,24.70
2018-07-01T13:56:56.281Z,25.20
2018-07-01T13:59:24.643Z,25.40
2018-07-01T14:01:52.997Z,25.40
2018-07-01T14:04:21.557Z,25.40
2018-07-01T14:06:49.958Z,25.10
2018-07-01T14:09:18.243Z,24.70
2018-07-01T14:11:46.543Z,24.20
2018-07-01T14:14:14.793Z,24.10
2018-07-01T14:16:43.085Z,24.60
2018-07-01T14:19:11.423Z,25.30
2018-07-01T14:21:39.643Z,25.50
2018-07-01T14:24:07.866Z,25.30
2018-07-01T14:26:36.147Z,25.00
2018-07-01T14:29:04.544Z,24.90
2018-07-01T14:31:33.015Z,25.10
2018-07-01T14:34:01.319Z,25.10
2018-07-01T14:36:29.548Z,25.00
2018-07-01T14:38:58.171Z,25.00
2018-07-01T14:41:26.391Z,24.90
2018-07-01T14:43:54.872Z,24.70
2018-07-01T14:46:23.111Z,24.50
2018-07-01T14:48:51.371Z,24.40
2018-07-01T14:53:47.577Z,24.10
2018-07-01T14:56:15.791Z,24.00
2018-07-01T14:58:44.043Z,24.10
2018-07-01T15:01:12.308Z,24.10
2018-07-01T15:03:40.502Z,23.80
2018-07-01T15:06:09.947Z,23.70
2018-07-01T15:08:38.700Z,23.80
2018-07-01T15:11:06.981Z,24.00
2018-07-01T15:13:35.647Z,24.30
2018-07-01T15:16:03.878Z,24.50
2018-07-01T15:21:00.167Z,24.60
2018-07-01T15:23:28.462Z,24.30
2018-07-01T15:25:57.935Z,23.80
2018-07-01T15:28:27.049Z,23.50
2018-07-01T15:30:55.443Z,23.10
2018-07-01T15:33:24.049Z,22.80
2018-07-01T15:35:52.980Z,22.50
2018-07-01T15:38:21.224Z,22.30
2018-07-01T15:40:56.032Z,22.00
2018-07-01T15:43:24.424Z,21.80
2018-07-01T15:45:52.807Z,21.70
2018-07-01T15:48:21.039Z,21.80
2018-07-01T15:50:49.264Z,22.10
2018-07-01T15:53:17.484Z,22.30
2018-07-01T15:55:46.064Z,22.60
2018-07-01T15:58:14.352Z,22.80
2018-07-01T16:00:42.627Z,22.90
2018-07-01T16:03:11.172Z,23.00
2018-07-01T16:05:39.415Z,23.00
2018-07-01T16:10:35.646Z,23.00
2018-07-01T16:13:03.969Z,23.00
2018-07-01T16:15:32.231Z,23.30
2018-07-01T16:18:00.468Z,23.60
2018-07-01T16:20:28.844Z,23.80
2018-07-01T16:22:57.055Z,23.80
2018-07-01T16:25:30.747Z,23.50
2018-07-01T16:30:32.883Z,22.70
2018-07-01T16:33:01.147Z,22.40
2018-07-01T16:35:29.374Z,22.20
2018-07-01T16:37:57.635Z,22.20
2018-07-01T16:40:25.871Z,22.20
2018-07-01T16:42:54.399Z,22.30
2018-07-01T16:45:22.647Z,22.20
2018-07-01T16:47:50.895Z,22.00
2018-07-01T16:50:19.152Z,21.60
2018-07-01T16:52:47.377Z,21.30
2018-07-01T16:55:15.599Z,21.00
2018-07-01T16:57:43.960Z,20.80
2018-07-01T17:00:12.164Z,20.70
2018-07-01T17:02:40.397Z,20.70
2018-07-01T17:07:36.651Z,20.70
2018-07-01T17:10:04.947Z,20.70
2018-07-01T17:12:33.320Z,20.50
2018-07-01T17:15:01.749Z,20.60
2018-07-01T17:17:30.872Z,20.50
2018-07-01T17:20:01.267Z,20.50
2018-07-01T17:22:29.507Z,20.50
2018-07-01T17:24:57.763Z,20.40
2018-07-01T17:27:25.983Z,20.40
2018-07-01T17:29:54.202Z,20.30
2018-07-01T17:32:28.024Z,20.20
2018-07-01T17:34:56.237Z,20.20
2018-07-01T17:37:24.487Z,20.20
2018-07-01T17:39:52.792Z,20.30
2018-07-01T17:42:21.171Z,20.40
2018-07-01T17:44:49.387Z,20.40
2018-07-01T17:47:17.890Z,20.40
2018-07-01T17:49:46.452Z,20.40
2018-07-01T17:52:14.724Z,20.20
2018-07-01T17:57:10.989Z,20.20
2018-07-01T17:59:39.212Z,20.20
2018-07-01T18:02:07.459Z,20.10
2018-07-01T18:04:35.823Z,20.10
2018-07-01T18:07:04.020Z,20.10
2018-07-01T18:09:32.291Z,20.10
2018-07-01T18:12:00.471Z,20.10
2018-07-01T18:14:28.727Z,20.10
2018-07-01T18:16:56.938Z,20.00
2018-07-01T18:22:11.329Z,19.90
2018-07-01T18:24:48.911Z,19.80
2018-07-01T18:26:49.760Z,19.70
2018-07-01T18:29:19.774Z,19.50
2018-07-01T18:31:46.371Z,19.30
2018-07-01T18:34:14.575Z,19.20
2018-07-01T18:36:42.834Z,19.00
2018-07-01T18:39:11.090Z,18.90
2018-07-01T18:41:39.467Z,18.80
2018-07-01T18:44:08.020Z,18.80
2018-07-01T18:46:36.364Z,18.80
2018-07-01T18:49:04.616Z,18.80
2018-07-01T18:51:32.841Z,18.60
2018-07-01T18:54:01.103Z,18.50
2018-07-01T18:56:29.883Z,18.40
2018-07-01T18:58:58.173Z,18.20
2018-07-01T19:01:26.425Z,18.10
2018-07-01T19:03:54.660Z,17.90
2018-07-01T19:06:22.894Z,17.70
2018-07-01T19:08:51.127Z,17.50
2018-07-01T19:11:19.538Z,17.40
2018-07-01T19:13:47.756Z,17.20
2018-07-01T19:16:16.065Z,17.10
2018-07-01T19:18:44.371Z,17.00
2018-07-01T19:21:12.717Z,17.00
2018-07-01T19:23:41.056Z,16.80
2018-07-01T19:26:09.674Z,16.70
2018-07-01T19:28:38.167Z,16.50
2018-07-01T19:31:06.853Z,16.40
2018-07-01T19:33:35.629Z,16.30
2018-07-01T19:36:04.006Z,16.10
2018-07-01T19:38:32.531Z,16.00
2018-07-01T19:41:00.812Z,15.80
2018-07-01T19:43:29.737Z,15.80
2018-07-01T19:45:58.108Z,15.70
2018-07-01T19:48:26.579Z,15.70
2018-07-01T19:50:54.856Z,15.70
2018-07-01T19:53:23.128Z,15.60
2018-07-01T19:55:51.519Z,15.50
2018-07-01T19:58:19.732Z,15.50
2018-07-01T20:00:47.984Z,15.40
2018-07-01T20:03:16.272Z,15.20
2018-07-01T20:05:44.708Z,15.20
2018-07-01T20:08:13.063Z,15.10
2018-07-01T20:10:41.373Z,15.00
2018-07-01T20:13:09.620Z,14.90
2018-07-01T20:15:37.908Z,14.80
2018-07-01T20:18:06.724Z,14.70
2018-07-01T20:20:35.814Z,14.60
2018-07-01T20:25:32.447Z,14.40
2018-07-01T20:28:00.938Z,14.40
2018-07-01T20:30:29.227Z,14.30
2018-07-01T20:32:57.558Z,14.20
2018-07-01T20:35:27.984Z,14.10
2018-07-01T20:37:56.239Z,14.10
2018-07-01T20:40:25.618Z,14.00
2018-07-01T20:42:54.208Z,13.90
2018-07-01T20:45:22.566Z,13.80
2018-07-01T20:47:52.577Z,13.70
2018-07-01T20:50:21.076Z,13.70
2018-07-01T20:52:49.390Z,13.50
2018-07-01T20:55:17.951Z,13.50
2018-07-01T20:57:46.596Z,13.40
2018-07-01T21:00:14.892Z,13.40
2018-07-01T21:02:43.212Z,13.30
2018-07-01T21:05:11.628Z,13.30
2018-07-01T21:07:41.986Z,13.20
2018-07-01T21:12:38.418Z,13.10
2018-07-01T21:15:07.615Z,13.00
2018-07-01T21:17:35.818Z,13.00
2018-07-01T21:20:04.336Z,12.90
2018-07-01T21:22:32.559Z,12.80
2018-07-01T21:25:00.871Z,12.80
2018-07-01T21:27:29.128Z,12.70
2018-07-01T21:29:57.641Z,12.60
2018-07-01T21:32:26.266Z,12.60
2018-07-01T21:34:54.517Z,12.50
2018-07-01T21:39:52.384Z,12.40
2018-07-01T21:42:21.109Z,12.30
2018-07-01T21:44:49.440Z,12.20
2018-07-01T21:47:17.723Z,12.20
2018-07-01T21:49:46.044Z,12.20
2018-07-01T21:52:14.515Z,12.10
2018-07-01T21:54:43.767Z,12.10
2018-07-01T21:57:16.256Z,12.10
2018-07-01T21:59:44.596Z,12.00
2018-07-01T22:02:13.554Z,12.00
2018-07-01T22:04:42.140Z,11.90
2018-07-01T22:07:10.593Z,11.90
2018-07-01T22:09:38.919Z,11.80
2018-07-01T22:12:18.404Z,11.80
2018-07-01T22:14:57.915Z,11.80
2018-07-01T22:17:26.160Z,11.70
2018-07-01T22:19:54.800Z,11.70
2018-07-01T22:22:23.235Z,11.60
2018-07-01T22:24:51.482Z,11.60
2018-07-01T22:27:19.729Z,11.60
2018-07-01T22:29:48.043Z,11.50
2018-07-01T22:32:16.271Z,11.50
2018-07-01T22:34:44.598Z,11.50
2018-07-01T22:37:12.841Z,11.40
2018-07-01T22:39:44.716Z,11.40
2018-07-01T22:42:12.939Z,11.30
2018-07-01T22:47:09.273Z,11.30
2018-07-01T22:49:37.570Z,11.30
2018-07-01T22:52:05.811Z,11.20
2018-07-01T22:54:34.071Z,11.30
2018-07-01T22:57:02.321Z,11.30
2018-07-01T22:59:30.583Z,11.20
2018-07-01T23:03:11.550Z,11.10
2018-07-01T23:05:39.786Z,11.10
2018-07-01T23:08:08.087Z,11.00
2018-07-01T23:13:05.179Z,10.90
2018-07-01T23:15:33.644Z,10.90
2018-07-01T23:18:01.956Z,10.80
2018-07-01T23:20:30.199Z,10.80
2018-07-01T23:22:58.424Z,10.80
2018-07-01T23:25:26.777Z,10.70
2018-07-01T23:27:55.004Z,10.70
2018-07-01T23:32:51.257Z,10.60
2018-07-01T23:35:19.517Z,10.50
2018-07-01T23:37:47.743Z,10.40
2018-07-01T23:40:15.979Z,10.40
2018-07-01T23:45:14.163Z,10.30
2018-07-01T23:47:42.532Z,10.30
2018-07-01T23:50:10.837Z,10.30
2018-07-01T23:52:39.080Z,10.30
2018-07-01T23:57:35.410Z,10.20
